createdAt,value
2018-05-06T03:00:59.625Z,74.33
2018-05-06T03:02:01.200Z,74.24
2018-05-06T03:02:59.111Z,74.43
2018-05-06T03:03:59.164Z,75.00
2018-05-06T03:04:59.281Z,75.38
2018-05-06T03:05:59.442Z,75.28
2018-05-06T03:06:59.645Z,75.38
2018-05-06T03:07:59.805Z,75.38
2018-05-06T03:08:59.954Z,76.14
2018-05-06T03:10:00.159Z,76.04
2018-05-06T03:11:00.299Z,76.04
2018-05-06T03:12:00.408Z,75.57
2018-05-06T03:13:00.583Z,75.19
2018-05-06T03:14:00.819Z,75.00
2018-05-06T03:15:00.933Z,75.67
2018-05-06T03:16:01.061Z,75.28
2018-05-06T03:17:01.196Z,75.38
2018-05-06T03:18:01.406Z,74.81
2018-05-06T03:19:01.611Z,74.71
2018-05-06T03:20:01.684Z,75.28
2018-05-06T03:21:01.890Z,75.76
2018-05-06T03:22:02.031Z,75.76
2018-05-06T03:23:02.227Z,76.23
2018-05-06T03:24:02.357Z,76.42
2018-05-06T03:25:02.573Z,76.52
2018-05-06T03:26:02.723Z,76.61
2018-05-06T03:27:02.854Z,76.71
2018-05-06T03:28:03.108Z,76.42
2018-05-06T03:29:03.270Z,76.42
2018-05-06T03:30:03.382Z,75.95
2018-05-06T03:31:03.582Z,76.52
2018-05-06T03:32:03.707Z,76.80
2018-05-06T03:33:03.914Z,77.18
2018-05-06T03:34:04.051Z,77.47
2018-05-06T03:35:04.191Z,76.99
2018-05-06T03:36:04.412Z,76.80
2018-05-06T03:37:04.537Z,76.90
2018-05-06T03:38:04.698Z,76.52
2018-05-06T03:39:04.877Z,76.52
2018-05-06T03:40:04.976Z,76.71
2018-05-06T03:41:05.177Z,76.32
2018-05-06T03:42:05.325Z,76.61
2018-05-06T03:43:05.531Z,76.42
2018-05-06T03:44:05.671Z,76.52
2018-05-06T03:45:05.852Z,76.42
2018-05-06T03:46:06.057Z,76.71
2018-05-06T03:47:06.118Z,76.90
2018-05-06T03:48:06.312Z,76.71
2018-05-06T03:49:06.439Z,76.71
2018-05-06T03:50:06.649Z,76.52
2018-05-06T03:51:06.777Z,76.80
2018-05-06T03:52:06.970Z,76.71
2018-05-06T03:53:07.070Z,76.48
2018-05-06T03:54:07.265Z,77.62
2018-05-06T03:55:07.402Z,77.05
2018-05-06T03:56:07.539Z,77.43
2018-05-06T03:57:07.706Z,77.33
2018-05-06T03:58:07.909Z,77.71
2018-05-06T03:59:08.009Z,78.09
2018-05-06T04:00:08.495Z,77.62
2018-05-06T04:01:08.381Z,77.71
2018-05-06T04:02:08.526Z,78.28
2018-05-06T04:03:08.676Z,78.19
2018-05-06T04:04:08.862Z,78.28
2018-05-06T04:05:09.029Z,77.90
2018-05-06T04:06:09.193Z,78.95
2018-05-06T04:07:09.291Z,78.95
2018-05-06T04:08:09.523Z,79.42
2018-05-06T04:09:09.696Z,79.52
2018-05-06T04:10:09.782Z,79.36
2018-05-06T04:11:09.948Z,79.46
2018-05-06T04:12:10.141Z,79.94
2018-05-06T04:13:10.261Z,79.17
2018-05-06T04:14:10.413Z,79.27
2018-05-06T04:15:10.564Z,79.55
2018-05-06T04:16:10.790Z,79.46
2018-05-06T04:17:10.926Z,79.55
2018-05-06T04:18:11.076Z,79.27
2018-05-06T04:19:11.281Z,79.27
2018-05-06T04:20:11.398Z,78.80
2018-05-06T04:21:11.596Z,78.99
2018-05-06T04:22:11.716Z,77.94
2018-05-06T04:23:11.914Z,78.23
2018-05-06T04:24:12.062Z,77.56
2018-05-06T04:25:12.182Z,78.03
2018-05-06T04:26:12.417Z,77.56
2018-05-06T04:27:12.474Z,77.47
2018-05-06T04:28:12.705Z,77.84
2018-05-06T04:29:12.826Z,77.84
2018-05-06T04:30:13.095Z,77.66
2018-05-06T04:31:13.149Z,77.75
2018-05-06T04:32:13.371Z,78.13
2018-05-06T04:33:13.487Z,78.80
2018-05-06T04:34:13.688Z,77.56
2018-05-06T04:35:13.824Z,77.84
2018-05-06T04:36:13.998Z,77.56
2018-05-06T04:37:14.119Z,78.13
2018-05-06T04:38:14.279Z,77.84
2018-05-06T04:39:14.476Z,77.70
2018-05-06T04:40:14.615Z,77.22
2018-05-06T04:41:14.812Z,76.65
2018-05-06T04:42:14.928Z,77.60
2018-05-06T04:43:15.129Z,77.22
2018-05-06T04:44:15.287Z,77.28
2018-05-06T04:45:15.487Z,76.80
2018-05-06T04:46:15.581Z,77.56
2018-05-06T04:47:15.800Z,77.56
2018-05-06T04:48:15.899Z,77.47
2018-05-06T04:49:16.059Z,77.37
2018-05-06T04:50:16.257Z,78.13
2018-05-06T04:51:16.399Z,77.84
2018-05-06T04:52:16.579Z,77.75
2018-05-06T04:53:16.731Z,78.23
2018-05-06T04:54:16.913Z,78.23
2018-05-06T04:55:17.059Z,78.23
2018-05-06T04:56:17.183Z,77.56
2018-05-06T04:57:17.456Z,78.13
2018-05-06T04:58:17.490Z,78.51
2018-05-06T04:59:17.678Z,78.61
2018-05-06T05:00:17.748Z,78.89
2018-05-06T05:01:17.955Z,79.46
2018-05-06T05:02:18.163Z,78.80
2018-05-06T05:03:18.260Z,78.70
2018-05-06T05:04:18.491Z,78.80
2018-05-06T05:05:18.655Z,79.55
2018-05-06T05:06:18.808Z,78.99
2018-05-06T05:07:18.975Z,79.03
2018-05-06T05:08:19.150Z,79.22
2018-05-06T05:09:19.336Z,78.42
2018-05-06T05:10:19.530Z,78.64
2018-05-06T05:11:19.619Z,78.55
2018-05-06T05:12:19.739Z,78.45
2018-05-06T05:13:19.952Z,78.27
2018-05-06T05:14:20.094Z,78.17
2018-05-06T05:15:20.267Z,78.64
2018-05-06T05:16:20.429Z,78.93
2018-05-06T05:17:20.565Z,78.17
2018-05-06T05:18:20.806Z,78.93
2018-05-06T05:19:20.911Z,78.74
2018-05-06T05:20:21.091Z,78.93
2018-05-06T05:21:21.162Z,78.83
2018-05-06T05:22:21.419Z,77.79
2018-05-06T05:23:21.583Z,78.55
2018-05-06T05:24:21.741Z,77.89
2018-05-06T05:25:21.829Z,77.36
2018-05-06T05:26:22.060Z,77.41
2018-05-06T05:27:22.179Z,77.55
2018-05-06T05:28:22.387Z,77.26
2018-05-06T05:29:22.597Z,76.97
2018-05-06T05:30:22.639Z,76.97
2018-05-06T05:31:22.843Z,76.69
2018-05-06T05:32:23.040Z,76.97
2018-05-06T05:33:23.081Z,76.78
2018-05-06T05:34:23.351Z,76.59
2018-05-06T05:35:23.414Z,76.31
2018-05-06T05:36:23.636Z,75.87
2018-05-06T05:37:23.806Z,76.25
2018-05-06T05:38:23.947Z,75.96
2018-05-06T05:39:24.148Z,76.06
2018-05-06T05:40:24.306Z,75.87
2018-05-06T05:41:24.463Z,75.11
2018-05-06T05:42:24.583Z,75.81
2018-05-06T05:43:24.809Z,75.59
2018-05-06T05:44:24.973Z,74.39
2018-05-06T05:45:25.099Z,74.39
2018-05-06T05:46:25.289Z,74.39
2018-05-06T05:47:25.418Z,74.20
2018-05-06T05:48:25.581Z,74.20
2018-05-06T05:49:25.768Z,73.63
2018-05-06T05:50:25.844Z,73.53
2018-05-06T05:51:26.044Z,73.57
2018-05-06T05:52:26.183Z,72.90
2018-05-06T05:53:26.405Z,73.38
2018-05-06T05:54:26.494Z,73.38
2018-05-06T05:55:26.710Z,72.81
2018-05-06T05:56:26.862Z,72.42
2018-05-06T05:57:26.983Z,72.24
2018-05-06T05:58:27.214Z,73.28
2018-05-06T05:59:27.393Z,73.28
2018-05-06T06:00:27.450Z,72.85
2018-05-06T06:01:27.761Z,72.08
2018-05-06T06:02:27.887Z,72.08
2018-05-06T06:03:28.025Z,72.08
2018-05-06T06:04:28.167Z,71.03
2018-05-06T06:05:28.368Z,70.75
2018-05-06T06:06:28.424Z,70.75
2018-05-06T06:07:28.627Z,70.69
2018-05-06T06:08:28.808Z,69.93
2018-05-06T06:09:28.978Z,69.17
2018-05-06T06:10:29.147Z,68.78
2018-05-06T06:11:29.266Z,68.50
2018-05-06T06:13:30.295Z,69.20
2018-05-06T06:14:30.863Z,69.10
2018-05-06T06:15:31.755Z,68.15
2018-05-06T06:16:30.104Z,67.86
2018-05-06T06:17:30.302Z,67.58
2018-05-06T06:18:30.468Z,66.94
2018-05-06T06:19:30.641Z,66.66
2018-05-06T06:20:30.800Z,66.18
2018-05-06T06:21:30.942Z,65.80
2018-05-06T06:22:31.051Z,66.28
2018-05-06T06:23:31.258Z,66.69
2018-05-06T06:24:31.404Z,65.64
2018-05-06T06:25:31.554Z,64.97
2018-05-06T06:26:31.712Z,64.88
2018-05-06T06:27:31.933Z,64.69
2018-05-06T06:28:32.078Z,64.12
2018-05-06T06:29:32.247Z,64.34
2018-05-06T06:30:32.390Z,63.57
2018-05-06T06:31:32.581Z,61.86
2018-05-06T06:32:32.753Z,61.86
2018-05-06T06:33:32.905Z,61.32
2018-05-06T06:34:33.032Z,61.32
2018-05-06T06:35:33.129Z,61.51
2018-05-06T06:36:33.426Z,60.17
2018-05-06T06:37:33.599Z,60.17
2018-05-06T06:38:33.691Z,61.13
2018-05-06T06:39:33.888Z,61.25
2018-05-06T06:40:33.993Z,61.06
2018-05-06T06:41:34.396Z,61.72
2018-05-06T06:42:34.305Z,60.58
2018-05-06T06:43:34.493Z,60.10
2018-05-06T06:44:34.616Z,59.84
2018-05-06T06:45:34.738Z,59.47
2018-05-06T06:46:34.948Z,59.84
2018-05-06T06:47:35.164Z,58.98
2018-05-06T06:48:35.325Z,58.51
2018-05-06T06:49:35.657Z,58.89
2018-05-06T06:50:35.891Z,58.03
2018-05-06T06:51:36.128Z,57.87
2018-05-06T06:52:36.035Z,58.63
2018-05-06T06:53:36.232Z,58.73
2018-05-06T06:54:36.313Z,57.68
2018-05-06T06:57:18.042Z,54.74
2018-05-06T06:58:18.073Z,54.93
2018-05-06T06:59:18.287Z,54.55
2018-05-06T07:00:18.490Z,54.07
2018-05-06T07:01:18.603Z,53.49
2018-05-06T07:02:18.724Z,53.81
2018-05-06T07:03:18.894Z,53.30
2018-05-06T07:04:19.099Z,53.33
2018-05-06T07:05:19.252Z,51.99
2018-05-06T07:06:19.422Z,53.33
2018-05-06T07:07:19.506Z,54.00
2018-05-06T07:08:19.719Z,53.36
2018-05-06T07:09:19.906Z,52.69
2018-05-06T07:10:20.093Z,51.92
2018-05-06T07:11:20.214Z,53.45
2018-05-06T07:12:20.325Z,52.01
2018-05-06T07:13:20.580Z,51.08
2018-05-06T07:14:20.756Z,50.99
2018-05-06T07:15:20.858Z,50.32
2018-05-06T07:16:21.011Z,48.40
2018-05-06T07:17:21.267Z,47.94
2018-05-06T07:18:21.398Z,48.43
2018-05-06T07:19:21.577Z,47.27
2018-05-06T07:20:21.740Z,48.80
2018-05-06T07:21:21.860Z,47.37
2018-05-06T07:22:22.017Z,47.58
2018-05-06T07:23:22.321Z,47.01
2018-05-06T07:24:22.367Z,48.16
2018-05-06T07:25:22.565Z,48.74
2018-05-06T07:26:22.753Z,48.64
2018-05-06T07:27:22.911Z,46.72
2018-05-06T07:28:23.127Z,46.24
2018-05-06T07:29:23.256Z,44.51
2018-05-06T07:30:23.411Z,43.74
2018-05-06T07:31:23.543Z,45.30
2018-05-06T07:32:23.709Z,45.47
2018-05-06T07:33:23.837Z,46.17
2018-05-06T07:34:23.986Z,45.11
2018-05-06T07:35:24.184Z,44.24
2018-05-06T07:36:24.382Z,44.34
2018-05-06T07:37:24.543Z,44.06
2018-05-06T07:38:24.753Z,45.59
2018-05-06T07:39:24.895Z,45.78
2018-05-06T07:40:25.065Z,43.29
2018-05-06T07:41:25.200Z,43.29
2018-05-06T07:42:25.388Z,43.67
2018-05-06T07:43:25.496Z,44.54
2018-05-06T07:44:25.657Z,44.34
2018-05-06T07:45:25.845Z,44.75
2018-05-06T07:46:26.004Z,43.67
2018-05-06T07:47:26.212Z,44.44
2018-05-06T07:48:26.415Z,44.84
2018-05-06T07:49:26.619Z,45.32
2018-05-06T07:50:26.751Z,44.96
2018-05-06T07:51:26.923Z,42.49
2018-05-06T07:52:27.038Z,42.60
2018-05-06T07:53:27.241Z,40.88
2018-05-06T07:54:27.337Z,39.93
2018-05-06T07:55:27.543Z,40.63
2018-05-06T07:56:27.714Z,40.07
2018-05-06T07:57:27.901Z,38.74
2018-05-06T07:58:28.077Z,37.29
2018-05-06T07:59:28.255Z,37.29
2018-05-06T08:00:28.354Z,36.63
2018-05-06T08:01:28.624Z,36.07
2018-05-06T08:02:29.434Z,34.72
2018-05-06T08:03:29.020Z,34.64
2018-05-06T08:04:29.180Z,35.24
2018-05-06T08:05:29.331Z,33.23
2018-05-06T08:06:29.443Z,32.36
2018-05-06T08:07:29.696Z,33.62
2018-05-06T08:08:29.850Z,34.02
2018-05-06T08:09:29.969Z,33.34
2018-05-06T08:10:30.135Z,31.99
2018-05-06T08:11:30.322Z,32.26
2018-05-06T08:12:30.521Z,32.18
2018-05-06T08:13:30.674Z,31.51
2018-05-06T08:14:30.786Z,33.36
2018-05-06T08:15:30.946Z,32.60
2018-05-06T08:16:31.299Z,30.57
2018-05-06T08:17:31.324Z,31.04
2018-05-06T08:18:31.531Z,29.02
2018-05-06T08:19:31.614Z,29.33
2018-05-06T08:20:31.836Z,28.45
2018-05-06T08:21:31.976Z,28.55
2018-05-06T08:22:32.117Z,27.87
2018-05-06T08:23:32.266Z,28.65
2018-05-06T08:24:32.538Z,28.07
2018-05-06T08:25:32.682Z,27.96
2018-05-06T08:26:32.769Z,29.02
2018-05-06T08:27:32.988Z,29.12
2018-05-06T08:28:33.180Z,29.69
2018-05-06T08:29:33.341Z,29.12
2018-05-06T08:30:33.563Z,30.08
2018-05-06T08:31:33.728Z,30.47
2018-05-06T08:32:33.883Z,28.64
2018-05-06T08:33:34.035Z,28.81
2018-05-06T08:34:34.236Z,29.02
2018-05-06T08:35:34.371Z,28.14
2018-05-06T08:36:34.551Z,28.72
2018-05-06T08:37:34.736Z,28.04
2018-05-06T08:38:34.876Z,28.07
2018-05-06T08:39:35.070Z,28.65
2018-05-06T08:40:35.202Z,27.76
2018-05-06T08:41:35.394Z,28.75
2018-05-06T08:42:35.632Z,28.17
2018-05-06T08:43:35.714Z,28.38
2018-05-06T08:44:35.823Z,29.44
2018-05-06T08:45:36.041Z,28.07
2018-05-06T08:46:36.237Z,28.36
2018-05-06T08:47:36.326Z,28.17
2018-05-06T08:48:36.571Z,27.40
2018-05-06T08:49:36.701Z,27.21
2018-05-06T08:50:36.880Z,28.28
2018-05-06T08:51:37.101Z,28.34
2018-05-06T08:52:37.210Z,28.05
2018-05-06T08:53:37.398Z,28.43
2018-05-06T08:54:37.495Z,29.97
2018-05-06T08:55:37.680Z,30.46
2018-05-06T08:56:38.034Z,30.93
2018-05-06T08:57:37.933Z,30.33
2018-05-06T08:58:38.150Z,32.06
2018-05-06T08:59:38.420Z,32.14
2018-05-06T09:00:38.552Z,33.29
2018-05-06T09:01:38.697Z,33.47
2018-05-06T09:02:38.828Z,34.42
2018-05-06T09:03:39.039Z,34.13
2018-05-06T09:04:39.152Z,34.80
2018-05-06T09:05:39.382Z,34.59
2018-05-06T09:06:39.496Z,36.04
2018-05-06T09:07:39.669Z,35.27
2018-05-06T09:08:39.859Z,36.63
2018-05-06T09:09:40.053Z,37.60
2018-05-06T09:10:40.295Z,35.58
2018-05-06T09:11:40.468Z,35.38
2018-05-06T09:12:40.600Z,36.44
2018-05-06T09:13:40.846Z,38.01
2018-05-06T09:14:41.028Z,37.81
2018-05-06T09:15:41.131Z,37.62
2018-05-06T09:16:41.322Z,36.67
2018-05-06T09:17:41.472Z,34.84
2018-05-06T09:18:41.596Z,33.70
2018-05-06T09:19:41.866Z,35.92
2018-05-06T09:20:41.980Z,36.40
2018-05-06T09:21:42.203Z,33.31
2018-05-06T09:22:42.368Z,33.31
2018-05-06T09:23:42.487Z,33.22
2018-05-06T09:24:42.702Z,32.26
2018-05-06T09:25:42.807Z,33.63
2018-05-06T09:26:43.095Z,33.55
2018-05-06T09:27:43.284Z,32.21
2018-05-06T09:28:43.212Z,30.29
2018-05-06T09:29:43.494Z,28.07
2018-05-06T09:30:43.670Z,29.24
2018-05-06T09:31:43.829Z,28.47
2018-05-06T09:32:44.000Z,27.11
2018-05-06T09:33:44.370Z,28.47
2018-05-06T09:34:45.903Z,28.09
2018-05-06T09:35:45.281Z,26.85
2018-05-06T09:36:44.917Z,28.23
2018-05-06T09:37:45.409Z,27.96
2018-05-06T09:38:45.320Z,26.32
2018-05-06T09:39:45.584Z,23.58
2018-05-06T09:40:45.822Z,23.49
2018-05-06T09:41:47.655Z,23.20
2018-05-06T09:42:48.285Z,23.48
2018-05-06T09:43:47.061Z,22.72
2018-05-06T09:44:46.399Z,23.30
2018-05-06T09:45:46.551Z,22.72
2018-05-06T09:46:46.744Z,22.92
2018-05-06T09:47:47.206Z,23.70
2018-05-06T09:48:47.163Z,22.44
2018-05-06T09:49:47.212Z,22.25
2018-05-06T09:50:47.435Z,21.97
2018-05-06T09:51:47.577Z,21.39
2018-05-06T09:52:47.788Z,22.17
2018-05-06T09:53:48.000Z,21.50
2018-05-06T09:54:49.054Z,21.41
2018-05-06T09:55:49.516Z,22.48
2018-05-06T09:56:50.775Z,22.39
2018-05-06T09:57:51.564Z,23.36
2018-05-06T09:59:05.507Z,23.17
2018-05-06T10:20:27.764Z,20.66
2018-05-06T10:21:27.222Z,20.37
2018-05-06T10:22:30.003Z,19.70
2018-05-06T10:23:32.070Z,19.79
2018-05-06T10:24:31.377Z,19.39
2018-05-06T10:25:30.687Z,20.45
2018-05-06T10:26:29.393Z,20.47
2018-05-06T10:27:27.723Z,20.17
2018-05-06T10:28:25.862Z,21.45
2018-05-06T10:29:25.806Z,22.53
2018-05-06T10:30:26.082Z,20.58
2018-05-06T10:31:26.106Z,21.26
2018-05-06T10:32:26.199Z,20.29
2018-05-06T10:33:26.513Z,20.19
2018-05-06T10:34:26.661Z,20.48
2018-05-06T10:35:27.024Z,19.39
2018-05-06T10:36:26.994Z,19.68
2018-05-06T10:37:27.299Z,19.29
2018-05-06T10:38:27.416Z,21.04
2018-05-06T10:39:27.591Z,20.76
2018-05-06T10:40:27.684Z,19.00
2018-05-06T10:41:27.948Z,19.49
2018-05-06T10:42:28.142Z,20.76
2018-05-06T10:43:28.879Z,21.64
2018-05-06T10:44:28.678Z,21.25
2018-05-06T10:45:28.766Z,19.98
2018-05-06T10:46:28.796Z,20.57
2018-05-06T10:47:29.004Z,20.09
2018-05-06T10:48:29.193Z,19.79
2018-05-06T10:49:29.384Z,19.01
2018-05-06T10:50:29.664Z,18.82
2018-05-06T10:51:29.921Z,18.73
2018-05-06T10:52:30.512Z,18.82
2018-05-06T10:53:30.296Z,18.80
2018-05-06T10:54:30.318Z,20.68
2018-05-06T10:55:30.547Z,18.42
2018-05-06T10:56:30.693Z,19.02
2018-05-06T10:57:31.249Z,18.63
2018-05-06T10:58:31.469Z,18.15
2018-05-06T10:59:31.417Z,18.84
2018-05-06T11:00:31.425Z,19.82
2018-05-06T11:01:32.108Z,18.65
2018-05-06T11:02:31.835Z,17.29
2018-05-06T11:03:32.101Z,15.92
2018-05-06T11:04:32.225Z,16.30
2018-05-06T11:05:32.334Z,17.38
2018-05-06T11:06:32.454Z,18.36
2018-05-06T11:07:32.612Z,19.15
2018-05-06T11:08:32.818Z,18.76
2018-05-06T11:09:32.982Z,17.68
2018-05-06T11:10:33.246Z,16.41
2018-05-06T11:11:35.944Z,17.39
2018-05-06T11:12:34.853Z,17.88
2018-05-06T11:13:35.146Z,17.39
2018-05-06T11:14:34.266Z,17.10
2018-05-06T11:15:35.116Z,17.99
2018-05-06T11:16:34.475Z,17.13
2018-05-06T11:17:34.530Z,15.64
2018-05-06T11:18:35.256Z,16.59
2018-05-06T11:19:35.239Z,17.09
2018-05-06T11:20:35.287Z,17.68
2018-05-06T11:21:36.034Z,18.44
2018-05-06T11:22:37.886Z,19.34
2018-05-06T11:23:37.504Z,19.14
2018-05-06T11:42:11.942Z,17.50
2018-05-06T11:46:02.160Z,18.47
2018-05-06T11:49:19.860Z,17.32
2018-05-06T11:50:04.921Z,17.90
2018-05-06T11:50:59.216Z,18.29
2018-05-06T11:51:56.775Z,18.39
2018-05-06T11:52:57.645Z,18.11
2018-05-06T11:53:57.054Z,18.40
2018-05-06T11:54:58.439Z,17.99
2018-05-06T11:57:25.652Z,19.96
2018-05-06T11:58:02.731Z,17.82
2018-05-06T11:59:30.667Z,18.01
2018-05-06T12:00:06.120Z,18.30
2018-05-06T12:01:03.145Z,16.54
2018-05-06T12:02:11.726Z,17.11
2018-05-06T12:11:19.519Z,16.64
2018-05-06T12:12:20.216Z,18.70
2018-05-06T12:13:22.021Z,17.91
2018-05-06T12:14:20.619Z,18.40
2018-05-06T12:15:18.383Z,17.42
2018-05-06T12:16:18.601Z,17.92
2018-05-06T12:17:18.684Z,18.02
2018-05-06T12:18:18.897Z,16.17
2018-05-06T12:19:19.049Z,15.48
2018-05-06T12:20:19.219Z,15.37
2018-05-06T12:21:19.436Z,15.29
2018-05-06T12:22:19.702Z,15.38
2018-05-06T12:23:19.699Z,16.45
2018-05-06T12:24:19.971Z,15.95
2018-05-06T12:25:20.097Z,17.41
2018-05-06T12:26:20.347Z,17.62
2018-05-06T12:27:20.496Z,18.70
2018-05-06T12:28:20.702Z,17.33
2018-05-06T12:29:20.787Z,16.27
2018-05-06T12:30:20.982Z,15.18
2018-05-06T12:31:21.179Z,17.63
2018-05-06T12:32:21.319Z,19.20
2018-05-06T12:33:21.547Z,17.05
2018-05-06T12:34:21.692Z,17.84
2018-05-06T12:35:21.877Z,17.74
2018-05-06T12:36:21.982Z,15.78
2018-05-06T12:37:22.243Z,16.56
2018-05-06T12:38:22.382Z,16.75
2018-05-06T12:39:22.544Z,18.41
2018-05-06T12:40:22.703Z,16.46
2018-05-06T12:41:22.889Z,17.45
2018-05-06T12:42:23.077Z,16.38
2018-05-06T12:43:23.235Z,16.28
2018-05-06T12:44:23.469Z,16.27
2018-05-06T12:45:23.627Z,17.24
2018-05-06T12:46:23.759Z,16.47
2018-05-06T12:47:23.962Z,16.47
2018-05-06T12:48:24.078Z,17.45
2018-05-06T12:49:24.407Z,17.16
2018-05-06T12:50:24.464Z,16.68
2018-05-06T12:51:24.654Z,16.27
2018-05-06T12:52:24.829Z,15.10
2018-05-06T12:53:24.977Z,15.58
2018-05-06T12:54:25.129Z,17.73
2018-05-06T12:55:25.347Z,15.88
2018-05-06T12:56:25.545Z,16.75
2018-05-06T12:57:25.669Z,16.17
2018-05-06T12:58:25.828Z,17.05
2018-05-06T12:59:26.101Z,17.26
2018-05-06T13:00:26.236Z,16.28
2018-05-06T13:01:26.466Z,15.58
2018-05-06T13:02:26.592Z,15.77
2018-05-06T13:03:26.735Z,15.67
2018-05-06T13:04:26.906Z,16.47
2018-05-06T13:05:27.199Z,15.09
2018-05-06T13:06:27.366Z,15.69
2018-05-06T13:07:27.530Z,16.38
2018-05-06T13:08:27.752Z,15.39
2018-05-06T13:09:27.887Z,15.19
2018-05-06T13:10:28.727Z,15.58
2018-05-06T13:11:28.790Z,16.35
2018-05-06T13:12:28.492Z,15.37
2018-05-06T13:13:28.844Z,16.74
2018-05-06T13:14:28.778Z,17.83
2018-05-06T13:15:28.923Z,17.55
2018-05-06T13:16:29.161Z,15.09
2018-05-06T13:17:29.313Z,15.59
2018-05-06T13:18:29.474Z,16.08
2018-05-06T13:19:29.654Z,15.99
2018-05-06T13:20:29.831Z,15.40
2018-05-06T13:21:30.007Z,15.79
2018-05-06T13:22:30.222Z,14.62
2018-05-06T13:23:30.391Z,14.61
2018-05-06T13:24:30.602Z,15.19
2018-05-06T13:25:30.794Z,15.00
2018-05-06T13:26:30.948Z,16.27
2018-05-06T13:27:31.072Z,16.37
2018-05-06T13:28:31.245Z,15.08
2018-05-06T13:29:31.520Z,16.63
2018-05-06T13:30:31.616Z,17.53
2018-05-06T13:31:31.870Z,16.25
2018-05-06T13:32:31.987Z,16.37
2018-05-06T13:33:32.125Z,15.29
2018-05-06T13:34:32.374Z,15.98
2018-05-06T13:35:32.523Z,16.25
2018-05-06T13:36:32.722Z,16.27
2018-05-06T13:37:32.847Z,16.66
2018-05-06T13:38:33.113Z,17.45
2018-05-06T13:39:33.276Z,15.20
2018-05-06T13:40:33.421Z,15.10
2018-05-06T13:41:33.604Z,15.59
2018-05-06T13:42:33.889Z,15.01
2018-05-06T13:43:33.927Z,15.60
2018-05-06T13:44:34.128Z,15.51
2018-05-06T13:45:34.327Z,14.61
2018-05-06T13:46:34.447Z,14.42
2018-05-06T13:47:34.667Z,14.81
2018-05-06T13:48:34.859Z,16.17
2018-05-06T13:49:34.976Z,16.38
2018-05-06T13:50:35.226Z,15.79
2018-05-06T13:51:35.389Z,15.50
2018-05-06T13:52:35.510Z,15.18
2018-05-06T13:53:35.783Z,15.75
2018-05-06T13:54:35.960Z,16.44
2018-05-06T13:55:36.138Z,16.53
2018-05-06T13:56:36.264Z,17.62
2018-05-06T13:57:36.487Z,16.55
2018-05-06T13:58:36.581Z,15.96
2018-05-06T13:59:36.768Z,15.86
2018-05-06T14:00:37.021Z,15.28
2018-05-06T14:01:37.145Z,16.16
2018-05-06T14:02:37.328Z,15.57
2018-05-06T14:03:37.534Z,16.17
2018-05-06T14:04:37.692Z,15.38
2018-05-06T14:05:37.877Z,16.27
2018-05-06T14:06:38.113Z,16.27
2018-05-06T14:07:38.227Z,16.06
2018-05-06T14:08:38.413Z,15.78
2018-05-06T14:09:38.526Z,15.58
2018-05-06T14:10:38.793Z,14.61
2018-05-06T14:11:38.954Z,15.60
2018-05-06T14:12:39.145Z,16.20
2018-05-06T14:13:39.338Z,16.10
2018-05-06T14:14:39.577Z,14.92
2018-05-06T14:15:39.712Z,15.42
2018-05-06T14:16:39.932Z,15.02
2018-05-06T14:17:40.034Z,13.75
2018-05-06T14:18:40.459Z,14.61
2018-05-06T14:19:40.415Z,15.01
2018-05-06T14:20:40.679Z,16.97
2018-05-06T14:21:40.984Z,15.70
2018-05-06T14:22:41.386Z,15.69
2018-05-06T14:23:41.206Z,15.89
2018-05-06T14:24:41.487Z,16.27
2018-05-06T14:25:42.344Z,15.57
2018-05-06T14:26:41.830Z,15.47
2018-05-06T14:27:42.288Z,15.47
2018-05-06T14:28:42.975Z,15.77
2018-05-06T14:29:43.699Z,17.44
2018-05-06T14:30:43.269Z,16.06
2018-05-06T14:34:37.136Z,15.08
2018-05-06T14:37:13.024Z,15.77
2018-05-06T14:38:13.341Z,15.67
2018-05-06T14:39:11.436Z,14.29
2018-05-06T14:40:11.664Z,15.56
2018-05-06T14:41:11.805Z,16.44
2018-05-06T14:42:11.903Z,16.34
2018-05-06T14:43:12.160Z,17.42
2018-05-06T14:44:12.284Z,16.14
2018-05-06T14:45:12.472Z,15.95
2018-05-06T14:46:12.620Z,15.95
2018-05-06T14:47:12.857Z,15.95
2018-05-06T14:48:12.976Z,16.74
2018-05-06T14:49:13.144Z,15.36
2018-05-06T14:50:13.310Z,15.75
2018-05-06T14:51:13.481Z,16.23
2018-05-06T14:52:13.662Z,17.21
2018-05-06T14:53:14.731Z,18.68
2018-05-06T14:54:14.157Z,17.41
2018-05-06T14:55:14.256Z,16.73
2018-05-06T14:56:15.232Z,16.62
2018-05-06T14:57:14.751Z,16.13
2018-05-06T14:58:14.971Z,16.23
2018-05-06T14:59:15.733Z,16.93
2018-05-06T15:00:15.395Z,17.71
2018-05-06T15:01:15.466Z,17.90
2018-05-06T15:02:15.658Z,17.32
2018-05-06T15:03:15.827Z,16.14
2018-05-06T15:04:16.016Z,17.02
2018-05-06T15:05:16.254Z,16.82
2018-05-06T15:06:16.565Z,16.62
2018-05-06T15:07:16.614Z,17.88
2018-05-06T15:08:16.748Z,17.39
2018-05-06T15:09:17.733Z,17.59
2018-05-06T15:10:17.220Z,18.77
2018-05-06T15:11:17.379Z,19.46
2018-05-06T15:12:17.491Z,17.60
2018-05-06T15:13:17.681Z,17.71
2018-05-06T15:14:17.921Z,17.90
2018-05-06T15:15:18.064Z,17.11
2018-05-06T15:16:18.256Z,17.60
2018-05-06T15:17:18.353Z,17.59
2018-05-06T15:18:18.582Z,18.17
2018-05-06T15:19:18.761Z,18.92
2018-05-06T15:20:18.951Z,18.72
2018-05-06T15:21:19.182Z,18.62
2018-05-06T15:22:19.331Z,19.90
2018-05-06T15:23:19.471Z,20.59
2018-05-06T15:24:19.676Z,21.36
2018-05-06T15:25:19.800Z,20.20
2018-05-06T15:26:20.059Z,20.21
2018-05-06T15:27:20.191Z,18.95
2018-05-06T15:28:20.367Z,20.50
2018-05-06T15:29:20.580Z,20.69
2018-05-06T15:30:20.720Z,20.89
2018-05-06T15:31:20.845Z,19.42
2018-05-06T15:32:21.021Z,18.64
2018-05-06T15:33:21.265Z,18.36
2018-05-06T15:34:21.536Z,18.85
2018-05-06T15:35:21.648Z,18.76
2018-05-06T15:36:21.816Z,18.46
2018-05-06T15:37:22.009Z,19.15
2018-05-06T15:38:22.105Z,18.76
2018-05-06T15:39:22.315Z,18.95
2018-05-06T15:40:22.490Z,19.04
2018-05-06T15:41:22.666Z,19.43
2018-05-06T15:42:22.893Z,18.64
2018-05-06T15:43:23.028Z,18.82
2018-05-06T15:44:23.187Z,20.01
2018-05-06T15:45:23.343Z,19.81
2018-05-06T15:46:23.573Z,19.41
2018-05-06T15:47:23.980Z,20.30
2018-05-06T15:48:24.052Z,19.70
2018-05-06T15:49:24.199Z,19.60
2018-05-06T15:50:24.360Z,19.49
2018-05-06T15:51:24.549Z,20.55
2018-05-06T15:52:24.736Z,20.84
2018-05-06T15:53:24.852Z,21.03
2018-05-06T15:54:25.101Z,21.88
2018-05-06T15:55:25.276Z,22.08
2018-05-06T15:56:25.444Z,22.48
2018-05-06T15:57:25.571Z,22.28
2018-05-06T15:58:25.813Z,22.39
2018-05-06T15:59:25.964Z,23.36
2018-05-06T16:00:26.113Z,22.49
2018-05-06T16:01:26.476Z,21.51
2018-05-06T16:02:26.539Z,22.30
2018-05-06T16:03:26.715Z,22.21
2018-05-06T16:04:26.847Z,22.31
2018-05-06T16:05:27.042Z,22.20
2018-05-06T16:06:27.291Z,21.33
2018-05-06T16:07:27.461Z,22.79
2018-05-06T16:08:27.642Z,22.79
2018-05-06T16:09:27.804Z,21.54
2018-05-06T16:10:28.054Z,21.14
2018-05-06T16:11:28.153Z,21.23
2018-05-06T16:12:28.435Z,22.30
2018-05-06T16:13:29.243Z,22.39
2018-05-06T16:14:28.603Z,22.58
2018-05-06T16:15:28.805Z,22.28
2018-05-06T16:16:28.934Z,23.35
2018-05-06T16:17:29.163Z,22.27
2018-05-06T16:18:29.362Z,23.43
2018-05-06T16:19:29.521Z,23.62
2018-05-06T16:20:29.749Z,23.62
2018-05-06T16:21:29.884Z,24.49
2018-05-06T16:22:30.079Z,24.28
2018-05-06T16:23:30.194Z,24.77
2018-05-06T16:24:30.394Z,24.74
2018-05-06T16:25:30.552Z,25.21
2018-05-06T16:26:30.783Z,27.14
2018-05-06T16:27:30.836Z,26.54
2018-05-06T16:28:31.053Z,27.10
2018-05-06T16:29:31.251Z,27.97
2018-05-06T16:30:31.354Z,28.07
2018-05-06T16:31:31.558Z,28.07
2018-05-06T16:32:31.827Z,28.18
2018-05-06T16:33:31.931Z,28.36
2018-05-06T16:34:32.112Z,29.12
2018-05-06T16:35:32.792Z,29.50
2018-05-06T16:36:32.413Z,29.70
2018-05-06T16:37:32.569Z,29.50
2018-05-06T16:38:32.761Z,29.49
2018-05-06T16:39:32.934Z,30.28
2018-05-06T16:40:33.091Z,31.63
2018-05-06T16:41:33.284Z,30.47
2018-05-06T16:42:33.479Z,30.28
2018-05-06T16:43:33.690Z,31.73
2018-05-06T16:44:33.790Z,32.02
2018-05-06T16:45:33.945Z,31.62
2018-05-06T16:46:34.135Z,31.52
2018-05-06T16:47:34.288Z,30.75
2018-05-06T16:48:34.571Z,30.93
2018-05-06T16:49:35.645Z,31.02
2018-05-06T16:50:34.856Z,31.70
2018-05-06T16:51:35.002Z,32.09
2018-05-06T16:52:35.163Z,32.76
2018-05-06T16:53:35.348Z,32.17
2018-05-06T16:54:35.550Z,33.14